Airfield :
LOGIN :

Register | Disclaimer

   EN    FR    IT 

 










Legend :    VFR   Marginal VFR   IFR   Intensive IFR   Very Intensive IFR
Visi :
Ceiling :
>= 8 km
>= 3000ft
5 to 8 km
1000 to 3000 ft
1500m to 5 km
500 to 1000 ft
800 to 1500m
200 to 500 ft
< 800m
< 200 ft
Symbols :   Thunderstorms  Fog  Heavy snow  Heavy precipitations  Wind > 20 kt
SIGMETs :     Misc.  Thunderstorms  Icing  Turbulence  Mountain Waves  Volcanic Ashes






- Airport Elevation : 1306 ft
- IATA code : ACH


LSZR - Alten Rhein

CURRENT METAR :
  • 161020Z 30006KT 8000 SCT012 09/07 Q1021 NOSIG RMK E

EXPIRED METARs :
  • 160950Z 30006KT 8000 SCT012 09/07 Q1021 NOSIG RMK E
  • 160920Z 30006KT 8000 SCT012 09/07 Q1021 NOSIG RMK E
  • 160850Z VRB01KT 7000 SCT009 08/07 Q1021 NOSIG RMK D
  • 160820Z VRB01KT 7000 SCT009 08/07 Q1021 NOSIG RMK D
  • 160750Z VRB02KT 7000 SCT015 06/06 Q1021 NOSIG RMK C

TAF TAF LSZR
Valid from the 16 at 09:00 until the 16 at 18:00 UTC


160825Z 1609/1618 VRB02KT 7000 SCT015
BECMG 1610/1612 CAVOK
ATIS : +41 71 858 51 66



MET'MAP, your aeronautical weather chart ! - Copyright ORBIFLY December 2007 - Disclaimer

ORBIFLY MET'MAP TEAM :

Programming & Development : Alexandra Zaïnal
Concept & original design : Baudouin d'Aumeries
Assistance for programming : Marc-Olivier Méhu
Technical & hardware support : Manuel Goepfert

Contact : metmap@orbifly.com




SOURCES & CREDITS :

   NOAA